Terminal Aerodrome Forecast
Issued by NWS

Home | Current Version | Previous Version | Text Only | Print | Product List | Glossary On
Versions: 1 2 3 4 5 6 7 8 9 10 11 12 13 14 15 16 17 18 19 20 21
406
FTUS41 KPBZ 101436 AAA
TAFDUJ
TAF AMD
KDUJ 101436Z 1015/1112 25008KT 3SM -SHSN BKN020
      TEMPO 1015/1017 2SM -SHSN
     FM101800 26010KT P6SM BKN035
     FM110000 25006KT P6SM BKN090
     FM110800 22004KT 3SM -SHSN OVC030
     FM110900 19004KT 2SM -SN OVC010=

USA.gov is the U.S. government's official web portal to all federal, state and local government web resources and services.